createdAt,value
2023-05-12T00:01:27.314Z,58.92
2023-05-12T00:03:54.096Z,59.38
2023-05-12T00:06:21.426Z,58.96
2023-05-12T00:08:48.096Z,59.19
2023-05-12T00:11:14.691Z,58.88
2023-05-12T00:13:41.296Z,58.77
2023-05-12T00:16:08.028Z,58.82
2023-05-12T00:18:34.624Z,59.11
2023-05-12T00:21:01.186Z,58.78
2023-05-12T00:23:27.684Z,58.73
2023-05-12T00:25:54.243Z,58.47
2023-05-12T00:28:20.924Z,58.79
2023-05-12T00:30:47.428Z,58.85
2023-05-12T00:33:14.007Z,59.19
2023-05-12T00:35:40.647Z,58.77
2023-05-12T00:38:07.243Z,58.88
2023-05-12T00:40:34.051Z,59.06
2023-05-12T00:43:00.608Z,59.16
2023-05-12T00:45:29.436Z,59.32
2023-05-12T00:47:56.800Z,59.75
2023-05-12T00:50:23.508Z,59.90
2023-05-12T00:52:50.224Z,59.71
2023-05-12T00:55:16.941Z,59.81
2023-05-12T00:57:44.004Z,60.04
2023-05-12T01:00:11.060Z,60.28
2023-05-12T01:02:37.843Z,60.34
2023-05-12T01:08:51.502Z,60.12
2023-05-12T01:11:18.007Z,60.94
2023-05-12T01:13:44.573Z,60.94
2023-05-12T01:16:15.290Z,61.10
2023-05-12T01:18:44.031Z,61.12
2023-05-12T01:21:11.233Z,60.87
2023-05-12T01:23:42.443Z,61.55
2023-05-12T01:26:09.951Z,61.86
2023-05-12T01:28:37.769Z,61.98
2023-05-12T01:31:06.479Z,62.29
2023-05-12T01:33:34.100Z,61.67
2023-05-12T01:36:00.559Z,62.05
2023-05-12T01:38:27.511Z,62.11
2023-05-12T01:40:53.980Z,62.55
2023-05-12T01:43:22.196Z,62.73
2023-05-12T01:45:49.003Z,62.72
2023-05-12T01:48:15.501Z,63.05
2023-05-12T01:50:42.446Z,62.51
2023-05-12T01:53:10.607Z,62.71
2023-05-12T01:55:37.127Z,62.77
2023-05-12T01:58:03.634Z,63.15
2023-05-12T02:00:30.397Z,63.09
2023-05-12T02:02:57.055Z,62.67
2023-05-12T02:05:23.612Z,63.27
2023-05-12T02:07:50.162Z,63.38
2023-05-12T02:10:16.890Z,63.42
2023-05-12T02:12:43.456Z,63.65
2023-05-12T02:15:10.230Z,63.49
2023-05-12T02:17:36.873Z,64.30
2023-05-12T02:20:05.212Z,64.26
2023-05-12T02:22:31.679Z,64.07
2023-05-12T02:24:58.087Z,64.84
2023-05-12T02:27:24.562Z,65.15
2023-05-12T02:29:51.228Z,65.63
2023-05-12T02:32:17.643Z,65.76
2023-05-12T02:34:44.233Z,66.11
2023-05-12T02:37:10.795Z,66.85
2023-05-12T02:39:37.259Z,66.98
2023-05-12T02:42:03.916Z,67.75
2023-05-12T02:44:30.361Z,67.86
2023-05-12T02:46:57.969Z,68.41
2023-05-12T02:49:24.511Z,68.86
2023-05-12T02:51:50.988Z,69.21
2023-05-12T02:54:17.494Z,69.43
2023-05-12T02:56:44.102Z,69.47
2023-05-12T02:59:10.831Z,69.86
2023-05-12T03:01:37.321Z,70.84
2023-05-12T03:04:03.824Z,71.35
2023-05-12T03:06:30.551Z,72.24
2023-05-12T03:08:56.986Z,72.46
2023-05-12T03:11:23.553Z,72.96
2023-05-12T03:13:49.974Z,73.74
2023-05-12T03:16:19.438Z,74.49
2023-05-12T03:18:46.277Z,74.99
2023-05-12T03:21:13.184Z,75.79
2023-05-12T03:23:39.623Z,75.66
2023-05-12T03:26:06.265Z,75.72
2023-05-12T03:28:32.738Z,76.11
2023-05-12T03:30:59.225Z,76.04
2023-05-12T03:33:25.680Z,77.16
2023-05-12T03:35:52.190Z,76.93
2023-05-12T03:38:18.727Z,76.35
2023-05-12T03:40:45.168Z,77.14
2023-05-12T03:43:11.601Z,77.76
2023-05-12T03:45:38.000Z,78.22
2023-05-12T03:48:05.039Z,80.02
2023-05-12T03:50:31.544Z,80.08
2023-05-12T03:52:58.140Z,80.70
2023-05-12T03:55:24.663Z,79.64
2023-05-12T03:57:51.401Z,80.26
2023-05-12T04:00:18.549Z,79.28
2023-05-12T04:02:45.323Z,79.97
2023-05-12T04:05:12.054Z,80.55
2023-05-12T04:07:38.590Z,80.64
2023-05-12T04:10:05.421Z,80.96
2023-05-12T04:12:31.974Z,80.34
2023-05-12T04:14:59.013Z,81.53
2023-05-12T04:17:25.539Z,82.63
2023-05-12T04:19:52.701Z,79.88
2023-05-12T04:22:19.228Z,79.25
2023-05-12T04:24:45.699Z,81.06
2023-05-12T04:27:12.658Z,82.46
2023-05-12T04:29:39.090Z,82.98
2023-05-12T04:32:06.090Z,83.13
2023-05-12T04:34:32.598Z,82.24
2023-05-12T04:36:59.037Z,82.50
2023-05-12T04:39:25.505Z,82.86
2023-05-12T04:41:52.135Z,82.69
2023-05-12T04:44:18.582Z,84.29
2023-05-12T04:46:45.065Z,84.66
2023-05-12T04:49:11.642Z,84.49
2023-05-12T04:51:42.976Z,85.35
2023-05-12T04:54:10.384Z,83.97
2023-05-12T04:56:37.485Z,84.69
2023-05-12T04:59:03.932Z,85.01
2023-05-12T05:01:30.838Z,85.05
2023-05-12T05:03:57.647Z,85.84
2023-05-12T05:06:24.111Z,85.97
2023-05-12T05:08:50.711Z,84.16
2023-05-12T05:11:17.209Z,82.94
2023-05-12T05:13:43.712Z,83.07
2023-05-12T05:16:10.291Z,82.13
2023-05-12T05:18:37.827Z,82.31
2023-05-12T05:21:04.459Z,81.56
2023-05-12T05:23:30.986Z,81.17
2023-05-12T05:25:57.475Z,80.59
2023-05-12T05:28:24.006Z,79.73
2023-05-12T05:30:50.516Z,78.86
2023-05-12T05:33:17.135Z,77.65
2023-05-12T05:35:43.801Z,77.54
2023-05-12T05:38:10.376Z,75.72
2023-05-12T05:40:51.469Z,74.60
2023-05-12T05:43:18.450Z,72.67
2023-05-12T05:45:44.893Z,71.84
2023-05-12T05:48:11.487Z,71.20
2023-05-12T05:50:38.058Z,71.28
2023-05-12T05:53:04.564Z,70.56
2023-05-12T05:55:31.106Z,70.86
2023-05-12T05:57:57.558Z,71.27
2023-05-12T06:00:24.068Z,70.64
2023-05-12T06:02:50.768Z,70.14
2023-05-12T06:05:18.091Z,69.59
2023-05-12T06:07:44.788Z,68.48
2023-05-12T06:10:12.609Z,67.67
2023-05-12T06:12:40.875Z,67.55
2023-05-12T06:15:08.334Z,68.02
2023-05-12T06:17:34.896Z,68.05
2023-05-12T06:20:01.560Z,66.99
2023-05-12T06:22:28.044Z,67.21
2023-05-12T06:24:54.512Z,65.68
2023-05-12T06:27:21.022Z,65.67
2023-05-12T06:29:47.440Z,65.03
2023-05-12T06:32:14.030Z,65.68
2023-05-12T06:34:40.635Z,65.18
2023-05-12T06:37:07.052Z,64.30
2023-05-12T06:39:33.489Z,63.90
2023-05-12T06:41:59.950Z,63.08
2023-05-12T06:44:26.799Z,62.92
2023-05-12T06:46:53.582Z,62.23
2023-05-12T06:49:20.468Z,61.20
2023-05-12T06:51:47.056Z,60.66
2023-05-12T06:54:13.702Z,59.81
2023-05-12T06:56:40.211Z,58.67
2023-05-12T06:59:07.201Z,57.45
2023-05-12T07:01:34.074Z,57.31
2023-05-12T07:04:00.653Z,56.16
2023-05-12T07:06:27.813Z,55.92
2023-05-12T07:08:55.323Z,54.91
2023-05-12T07:11:22.769Z,54.43
2023-05-12T07:13:50.848Z,52.86
2023-05-12T07:16:18.653Z,52.41
2023-05-12T07:18:45.988Z,51.76
2023-05-12T07:21:13.311Z,51.65
2023-05-12T07:23:40.105Z,51.09
2023-05-12T07:26:07.354Z,49.83
2023-05-12T07:28:36.621Z,49.03
2023-05-12T07:31:07.507Z,48.59
2023-05-12T07:33:35.066Z,47.24
2023-05-12T07:36:02.620Z,47.24
2023-05-12T07:38:29.149Z,46.75
2023-05-12T07:40:55.892Z,46.86
2023-05-12T07:43:22.446Z,45.91
2023-05-12T07:45:48.888Z,45.28
2023-05-12T07:48:15.603Z,44.03
2023-05-12T07:50:42.236Z,43.18
2023-05-12T07:53:08.964Z,43.26
2023-05-12T07:55:35.753Z,42.91
2023-05-12T07:58:02.548Z,43.12
2023-05-12T08:00:29.054Z,42.62
2023-05-12T08:02:55.746Z,42.37
2023-05-12T08:05:22.514Z,41.29
2023-05-12T08:07:48.898Z,39.74
2023-05-12T08:10:15.338Z,39.44
2023-05-12T08:12:42.368Z,38.43
2023-05-12T08:15:09.495Z,38.30
2023-05-12T08:17:36.450Z,38.22
2023-05-12T08:20:06.646Z,38.16
2023-05-12T08:22:33.652Z,38.53
2023-05-12T08:25:00.288Z,38.11
2023-05-12T08:27:26.942Z,37.59
2023-05-12T08:29:53.384Z,36.42
2023-05-12T08:32:19.986Z,35.85
2023-05-12T08:34:46.624Z,35.11
2023-05-12T08:37:13.404Z,34.15
2023-05-12T08:39:40.056Z,33.46
2023-05-12T08:42:26.434Z,32.54
2023-05-12T08:44:53.983Z,32.06
2023-05-12T08:47:22.940Z,31.58
2023-05-12T08:49:58.924Z,31.83
2023-05-12T08:52:27.234Z,30.66
2023-05-12T08:54:56.484Z,30.53
2023-05-12T08:57:23.798Z,29.69
2023-05-12T08:59:55.946Z,29.20
2023-05-12T09:02:24.420Z,30.40
2023-05-12T09:04:52.380Z,31.04
2023-05-12T09:07:19.893Z,30.88
2023-05-12T09:09:48.817Z,31.78
2023-05-12T09:12:18.207Z,31.73
2023-05-12T09:14:46.860Z,31.94
2023-05-12T09:17:14.360Z,30.84
2023-05-12T09:19:40.871Z,30.62
2023-05-12T09:22:09.492Z,30.85
2023-05-12T09:24:40.003Z,31.08
2023-05-12T09:27:07.161Z,30.97
2023-05-12T09:29:35.862Z,30.65
2023-05-12T09:32:09.178Z,31.03
2023-05-12T09:34:38.769Z,31.36
2023-05-12T09:37:07.712Z,31.34
2023-05-12T09:39:34.341Z,30.33
2023-05-12T09:42:01.065Z,30.20
2023-05-12T09:44:30.400Z,29.92
2023-05-12T09:47:06.586Z,29.85
2023-05-12T09:49:33.088Z,29.94
2023-05-12T09:51:59.740Z,29.47
2023-05-12T09:54:31.013Z,30.81
2023-05-12T09:56:59.873Z,30.42
2023-05-12T09:59:34.421Z,30.30
2023-05-12T10:02:02.517Z,30.11
2023-05-12T10:04:32.387Z,30.92
2023-05-12T10:06:59.525Z,31.00
2023-05-12T10:09:31.497Z,30.77
2023-05-12T10:11:59.117Z,30.34
2023-05-12T10:14:25.859Z,29.95
2023-05-12T10:16:54.132Z,34.94
2023-05-12T10:19:21.451Z,28.84
2023-05-12T10:21:49.160Z,29.36
2023-05-12T10:24:16.928Z,31.61
2023-05-12T10:26:44.725Z,30.63
2023-05-12T10:29:13.342Z,29.36
2023-05-12T10:31:40.204Z,29.81
2023-05-12T10:34:06.940Z,29.85
2023-05-12T10:36:46.877Z,29.94
2023-05-12T10:39:15.470Z,32.28
2023-05-12T10:41:42.729Z,32.80
2023-05-12T10:44:10.782Z,32.32
2023-05-12T10:46:37.612Z,31.71
2023-05-12T10:49:10.026Z,32.84
2023-05-12T10:51:45.588Z,32.58
2023-05-12T10:54:22.985Z,33.60
2023-05-12T10:56:50.604Z,32.79
2023-05-12T10:59:22.834Z,34.62
2023-05-12T11:02:00.644Z,32.45
2023-05-12T11:04:42.745Z,32.67
2023-05-12T11:07:11.819Z,33.33
2023-05-12T11:09:50.613Z,33.98
2023-05-12T11:12:26.386Z,35.13
2023-05-12T11:14:52.832Z,33.50
2023-05-12T11:17:19.296Z,34.76
2023-05-12T11:19:50.642Z,33.16
2023-05-12T11:22:19.944Z,32.97
2023-05-12T11:24:47.438Z,33.46
2023-05-12T11:27:16.449Z,33.91
2023-05-12T11:29:43.676Z,34.37
2023-05-12T11:32:12.466Z,33.60
2023-05-12T11:34:39.579Z,33.18
2023-05-12T11:37:06.698Z,33.60
2023-05-12T11:39:33.521Z,31.22
2023-05-12T11:42:12.981Z,32.32
2023-05-12T11:44:50.059Z,32.70
2023-05-12T11:47:17.682Z,34.77
2023-05-12T11:49:49.794Z,34.94
2023-05-12T11:52:17.095Z,34.74
2023-05-12T11:54:51.600Z,35.03
2023-05-12T11:57:32.430Z,34.84
2023-05-12T12:00:00.616Z,34.44
2023-05-12T12:02:28.193Z,34.69
2023-05-12T12:04:54.989Z,33.40
2023-05-12T12:07:34.877Z,32.87
2023-05-12T12:10:27.474Z,32.40
2023-05-12T12:12:53.926Z,33.05
2023-05-12T12:15:20.605Z,32.47
2023-05-12T12:17:47.298Z,34.24
2023-05-12T12:20:13.844Z,33.53
2023-05-12T12:22:40.292Z,35.63
2023-05-12T12:25:07.372Z,33.73
2023-05-12T12:27:33.813Z,34.57
2023-05-12T12:30:00.316Z,32.90
2023-05-12T12:32:27.137Z,32.91
2023-05-12T12:34:53.887Z,31.80
2023-05-12T12:37:20.466Z,34.57
2023-05-12T12:39:47.903Z,34.34
2023-05-12T12:42:15.630Z,34.05
2023-05-12T12:44:42.411Z,34.00
2023-05-12T12:47:08.894Z,33.54
2023-05-12T12:49:35.350Z,33.07
2023-05-12T12:52:02.136Z,33.23
2023-05-12T12:54:28.828Z,33.90
2023-05-12T12:56:55.931Z,33.71
2023-05-12T12:59:22.863Z,32.89
2023-05-12T13:01:49.377Z,32.80
2023-05-12T13:04:17.144Z,34.06
2023-05-12T13:06:43.811Z,34.75
2023-05-12T13:09:10.794Z,33.93
2023-05-12T13:11:37.661Z,34.80
2023-05-12T13:14:04.646Z,35.53
2023-05-12T13:16:31.676Z,34.05
2023-05-12T13:18:58.557Z,33.41
2023-05-12T13:21:25.304Z,34.57
2023-05-12T13:23:51.784Z,34.33
2023-05-12T13:26:18.272Z,32.81
2023-05-12T13:28:44.749Z,32.68
2023-05-12T13:31:11.660Z,32.45
2023-05-12T13:33:38.334Z,34.38
2023-05-12T13:36:08.332Z,32.64
2023-05-12T13:38:34.851Z,32.45
2023-05-12T13:41:01.966Z,32.23
2023-05-12T13:43:28.462Z,34.07
2023-05-12T13:45:55.067Z,32.35
2023-05-12T13:48:21.646Z,32.13
2023-05-12T13:50:48.120Z,33.97
2023-05-12T13:53:14.651Z,34.12
2023-05-12T13:55:41.521Z,32.79
2023-05-12T13:58:08.086Z,32.88
2023-05-12T14:00:34.634Z,32.67
2023-05-12T14:03:01.743Z,33.04
2023-05-12T14:05:28.431Z,32.39
2023-05-12T14:07:55.054Z,34.11
2023-05-12T14:10:21.532Z,32.98
2023-05-12T14:12:48.236Z,32.94
2023-05-12T14:15:28.773Z,33.02
2023-05-12T14:17:59.877Z,34.63
2023-05-12T14:20:26.460Z,36.24
2023-05-12T14:22:52.914Z,34.36
2023-05-12T14:25:19.578Z,33.22
2023-05-12T14:27:46.405Z,35.07
2023-05-12T14:30:13.453Z,35.84
2023-05-12T14:32:40.023Z,35.62
2023-05-12T14:35:08.333Z,33.75
2023-05-12T14:37:35.153Z,33.17
2023-05-12T14:40:01.886Z,32.74
2023-05-12T14:42:29.591Z,33.53
2023-05-12T14:44:56.432Z,35.09
2023-05-12T14:47:23.039Z,33.25
2023-05-12T14:49:49.655Z,32.89
2023-05-12T14:52:16.345Z,32.88
2023-05-12T14:54:42.783Z,33.13
2023-05-12T14:57:10.527Z,33.22
2023-05-12T14:59:36.986Z,32.91
2023-05-12T15:02:03.518Z,32.82
2023-05-12T15:04:30.726Z,32.38
2023-05-12T15:06:57.225Z,32.97
2023-05-12T15:09:23.795Z,33.01
2023-05-12T15:11:51.464Z,32.96
2023-05-12T15:14:18.121Z,33.00
2023-05-12T15:16:44.716Z,32.75
2023-05-12T15:19:11.356Z,33.02
2023-05-12T15:21:37.897Z,32.98
2023-05-12T15:24:04.507Z,33.62
2023-05-12T15:26:33.819Z,33.54
2023-05-12T15:29:02.062Z,33.13
2023-05-12T15:31:29.828Z,33.12
2023-05-12T15:33:57.637Z,33.23
2023-05-12T15:36:24.184Z,33.08
2023-05-12T15:38:50.693Z,32.85
2023-05-12T15:41:17.201Z,33.13
2023-05-12T15:43:43.671Z,33.25
2023-05-12T15:46:11.380Z,32.75
2023-05-12T15:48:39.151Z,32.91
2023-05-12T15:51:05.839Z,32.73
2023-05-12T15:53:32.634Z,32.72
2023-05-12T15:56:00.892Z,33.22
2023-05-12T15:58:27.663Z,32.86
2023-05-12T16:00:54.702Z,32.83
2023-05-12T16:03:21.520Z,32.65
2023-05-12T16:05:48.412Z,32.60
2023-05-12T16:08:14.905Z,33.08
2023-05-12T16:10:41.427Z,33.04
2023-05-12T16:13:07.910Z,33.59
2023-05-12T16:15:34.404Z,33.66
2023-05-12T16:18:00.896Z,33.60
2023-05-12T16:20:27.359Z,33.43
2023-05-12T16:22:53.895Z,33.36
2023-05-12T16:25:20.521Z,33.36
2023-05-12T16:27:47.124Z,33.38
2023-05-12T16:30:14.132Z,33.27
2023-05-12T16:32:40.644Z,33.30
2023-05-12T16:35:07.791Z,33.39
2023-05-12T16:37:34.371Z,33.27
2023-05-12T16:40:00.934Z,33.38
2023-05-12T16:42:27.356Z,33.38
2023-05-12T16:44:57.187Z,33.59
2023-05-12T16:47:23.686Z,33.62
2023-05-12T16:49:53.532Z,33.80
2023-05-12T16:52:20.593Z,33.52
2023-05-12T16:54:47.809Z,33.50
2023-05-12T16:57:14.244Z,33.51
2023-05-12T16:59:40.987Z,33.85
2023-05-12T17:02:08.339Z,33.98
2023-05-12T17:04:35.031Z,33.91
2023-05-12T17:07:01.617Z,34.13
2023-05-12T17:09:28.223Z,33.97
2023-05-12T17:11:54.783Z,34.13
2023-05-12T17:14:21.292Z,34.02
2023-05-12T17:16:47.695Z,34.14
2023-05-12T17:19:14.792Z,33.85
2023-05-12T17:21:42.326Z,34.09
2023-05-12T17:24:09.221Z,33.72
2023-05-12T17:26:36.024Z,34.22
2023-05-12T17:29:02.558Z,34.37
2023-05-12T17:31:29.189Z,34.13
2023-05-12T17:33:55.750Z,34.12
2023-05-12T17:36:22.524Z,34.38
2023-05-12T17:38:51.526Z,34.18
2023-05-12T17:41:18.633Z,34.26
2023-05-12T17:43:45.365Z,34.30
2023-05-12T17:46:12.028Z,34.39
2023-05-12T17:48:38.881Z,34.36
2023-05-12T17:51:05.932Z,34.27
2023-05-12T17:53:33.972Z,34.10
2023-05-12T17:56:00.493Z,34.04
2023-05-12T17:58:27.207Z,34.25
2023-05-12T18:00:53.776Z,34.55
2023-05-12T18:03:23.812Z,34.49
2023-05-12T18:05:52.105Z,34.28
2023-05-12T18:08:18.883Z,34.22
2023-05-12T18:10:45.790Z,34.43
2023-05-12T18:13:14.553Z,34.61
2023-05-12T18:15:41.735Z,34.64
2023-05-12T18:18:08.996Z,34.80
2023-05-12T18:20:35.770Z,34.80
2023-05-12T18:23:02.265Z,34.82
2023-05-12T18:25:28.684Z,35.19
2023-05-12T18:27:55.141Z,34.94
2023-05-12T18:30:21.685Z,35.05
2023-05-12T18:32:48.257Z,34.79
2023-05-12T18:35:14.781Z,34.81
2023-05-12T18:37:41.292Z,34.88
2023-05-12T18:40:08.360Z,34.90
2023-05-12T18:42:34.963Z,34.84
2023-05-12T18:45:01.426Z,34.97
2023-05-12T18:47:27.913Z,35.26
2023-05-12T18:49:54.574Z,35.17
2023-05-12T18:52:21.385Z,35.27
2023-05-12T18:54:49.687Z,35.35
2023-05-12T18:57:16.516Z,35.36
2023-05-12T18:59:43.141Z,35.32
2023-05-12T19:02:09.788Z,35.57
2023-05-12T19:04:36.609Z,35.73
2023-05-12T19:07:03.862Z,35.44
2023-05-12T19:09:30.293Z,35.85
2023-05-12T19:11:56.786Z,35.86
2023-05-12T19:14:23.282Z,35.98
2023-05-12T19:16:49.774Z,36.09
2023-05-12T19:19:16.328Z,36.30
2023-05-12T19:21:43.013Z,36.24
2023-05-12T19:24:10.641Z,36.50
2023-05-12T19:26:37.442Z,36.69
2023-05-12T19:29:04.504Z,36.71
2023-05-12T19:31:31.282Z,36.69
2023-05-12T19:33:57.949Z,37.23
2023-05-12T19:36:24.592Z,37.27
2023-05-12T19:38:51.275Z,37.34
2023-05-12T19:41:17.850Z,37.35
2023-05-12T19:43:44.393Z,37.74
2023-05-12T19:46:10.980Z,37.69
2023-05-12T19:48:37.544Z,38.04
2023-05-12T19:51:04.013Z,37.94
2023-05-12T19:53:30.686Z,38.31
2023-05-12T19:55:57.179Z,38.38
2023-05-12T19:58:23.850Z,38.40
2023-05-12T20:00:50.352Z,38.73
2023-05-12T20:03:17.060Z,38.90
2023-05-12T20:05:43.922Z,39.05
2023-05-12T20:08:10.476Z,39.31
2023-05-12T20:10:37.011Z,39.31
2023-05-12T20:13:04.395Z,39.38
2023-05-12T20:15:31.356Z,39.74
2023-05-12T20:17:58.245Z,40.08
2023-05-12T20:20:24.870Z,40.09
2023-05-12T20:22:51.889Z,40.32
2023-05-12T20:25:19.619Z,40.32
2023-05-12T20:27:46.581Z,40.48
2023-05-12T20:30:13.401Z,40.86
2023-05-12T20:32:40.212Z,40.93
2023-05-12T20:35:07.038Z,41.22
2023-05-12T20:37:33.693Z,41.38
2023-05-12T20:40:00.176Z,41.48
2023-05-12T20:42:26.781Z,41.61
2023-05-12T20:44:53.810Z,41.83
2023-05-12T20:47:20.366Z,41.82
2023-05-12T20:49:47.131Z,42.09
2023-05-12T20:52:13.621Z,42.40
2023-05-12T20:54:40.094Z,42.21
2023-05-12T20:57:06.605Z,42.58
2023-05-12T20:59:33.270Z,42.76
2023-05-12T21:01:59.774Z,42.90
2023-05-12T21:04:26.308Z,43.06
2023-05-12T21:06:53.725Z,43.03
2023-05-12T21:09:20.543Z,43.27
2023-05-12T21:11:47.221Z,43.36
2023-05-12T21:14:13.800Z,43.65
2023-05-12T21:16:40.423Z,43.40
2023-05-12T21:19:07.132Z,43.74
2023-05-12T21:21:33.750Z,43.88
2023-05-12T21:24:00.274Z,44.27
2023-05-12T21:26:27.609Z,44.16
2023-05-12T21:28:54.074Z,44.30
2023-05-12T21:31:20.635Z,44.59
2023-05-12T21:33:48.052Z,44.80
2023-05-12T21:36:14.568Z,44.71
2023-05-12T21:38:40.984Z,44.75
2023-05-12T21:41:07.485Z,45.00
2023-05-12T21:43:33.965Z,45.01
2023-05-12T21:46:06.591Z,45.45
2023-05-12T21:48:33.459Z,45.49
2023-05-12T21:51:01.611Z,45.70
2023-05-12T21:53:28.829Z,45.74
2023-05-12T21:55:55.914Z,45.73
2023-05-12T21:58:23.675Z,46.17
2023-05-12T22:00:53.025Z,46.04
2023-05-12T22:03:25.120Z,46.27
2023-05-12T22:05:51.813Z,46.21
2023-05-12T22:08:18.656Z,46.43
2023-05-12T22:10:45.189Z,46.64
2023-05-12T22:13:11.676Z,46.65
2023-05-12T22:15:38.335Z,47.00
2023-05-12T22:18:05.051Z,47.22
2023-05-12T22:20:31.661Z,47.12
2023-05-12T22:22:58.633Z,47.32
2023-05-12T22:25:25.342Z,47.44
2023-05-12T22:27:51.786Z,47.59
2023-05-12T22:30:18.903Z,47.72
2023-05-12T22:32:45.526Z,47.88
2023-05-12T22:35:12.061Z,47.62
2023-05-12T22:37:38.636Z,48.02
2023-05-12T22:40:05.805Z,48.32
2023-05-12T22:42:32.383Z,48.40
2023-05-12T22:45:00.726Z,48.50
2023-05-12T22:47:27.229Z,48.59
2023-05-12T22:49:53.678Z,48.62
2023-05-12T22:52:20.238Z,48.87
2023-05-12T22:54:46.727Z,48.73
2023-05-12T22:57:13.249Z,48.92
2023-05-12T22:59:39.684Z,49.03
2023-05-12T23:02:06.125Z,48.75
2023-05-12T23:04:32.578Z,48.94
2023-05-12T23:06:58.984Z,49.01
2023-05-12T23:09:25.395Z,49.34
2023-05-12T23:11:51.964Z,49.41
2023-05-12T23:14:18.458Z,49.55
2023-05-12T23:16:44.917Z,49.41
2023-05-12T23:19:11.557Z,49.56
2023-05-12T23:21:38.129Z,49.86
2023-05-12T23:24:04.994Z,49.74
2023-05-12T23:26:31.612Z,49.98
2023-05-12T23:28:58.411Z,50.58
2023-05-12T23:31:25.306Z,50.28
2023-05-12T23:33:51.964Z,50.43
2023-05-12T23:36:18.515Z,50.56
2023-05-12T23:38:44.964Z,50.45
2023-05-12T23:41:11.463Z,50.91
2023-05-12T23:43:38.970Z,50.93
2023-05-12T23:46:05.807Z,50.74
2023-05-12T23:48:32.300Z,51.37
2023-05-12T23:50:58.973Z,51.66
2023-05-12T23:53:25.747Z,52.01
2023-05-12T23:55:52.462Z,51.95
2023-05-12T23:58:18.931Z,52.18
